sensor_id;sensor_type;location;lat;lon;timestamp;temperature;humidity
18690;DHT22;9782;52.930;15.562;2023-01-28T00:00:01;-0.40;99.90
18690;DHT22;9782;52.930;15.562;2023-01-28T00:02:29;-0.30;99.90
18690;DHT22;9782;52.930;15.562;2023-01-28T00:04:56;-0.30;99.90
18690;DHT22;9782;52.930;15.562;2023-01-28T00:07:23;-0.30;99.90
18690;DHT22;9782;52.930;15.562;2023-01-28T00:09:50;-0.20;1.00
18690;DHT22;9782;52.930;15.562;2023-01-28T00:12:17;-0.20;99.90
18690;DHT22;9782;52.930;15.562;2023-01-28T00:14:44;-0.10;1.00
18690;DHT22;9782;52.930;15.562;2023-01-28T00:17:12;-0.10;1.00
18690;DHT22;9782;52.930;15.562;2023-01-28T00:19:41;-0.10;33.30
18690;DHT22;9782;52.930;15.562;2023-01-28T00:22:09;0.00;99.90
18690;DHT22;9782;52.930;15.562;2023-01-28T00:24:36;0.00;99.90
18690;DHT22;9782;52.930;15.562;2023-01-28T00:27:02;0.10;99.90
18690;DHT22;9782;52.930;15.562;2023-01-28T00:29:29;0.20;1.00
18690;DHT22;9782;52.930;15.562;2023-01-28T00:31:56;0.20;1.00
18690;DHT22;9782;52.930;15.562;2023-01-28T00:34:23;0.30;1.00
18690;DHT22;9782;52.930;15.562;2023-01-28T00:36:51;0.40;1.00
18690;DHT22;9782;52.930;15.562;2023-01-28T00:39:22;0.40;1.00
18690;DHT22;9782;52.930;15.562;2023-01-28T00:41:50;0.40;1.00
18690;DHT22;9782;52.930;15.562;2023-01-28T00:44:17;0.40;1.00
18690;DHT22;9782;52.930;15.562;2023-01-28T00:46:44;0.40;1.00
18690;DHT22;9782;52.930;15.562;2023-01-28T00:49:11;0.50;1.00
18690;DHT22;9782;52.930;15.562;2023-01-28T00:51:38;0.50;1.00
18690;DHT22;9782;52.930;15.562;2023-01-28T00:54:06;0.50;1.00
18690;DHT22;9782;52.930;15.562;2023-01-28T07:13:43;1.60;1.00
18690;DHT22;9782;52.930;15.562;2023-01-28T07:16:12;1.70;1.00
18690;DHT22;9782;52.930;15.562;2023-01-28T07:18:39;1.70;1.00
18690;DHT22;9782;52.930;15.562;2023-01-28T07:21:05;1.70;1.00
18690;DHT22;9782;52.930;15.562;2023-01-28T07:23:32;1.70;1.00
18690;DHT22;9782;52.930;15.562;2023-01-28T07:26:03;1.70;1.00
18690;DHT22;9782;52.930;15.562;2023-01-28T07:28:30;1.70;1.00
18690;DHT22;9782;52.930;15.562;2023-01-28T07:30:59;1.70;1.00
18690;DHT22;9782;52.930;15.562;2023-01-28T07:33:26;1.80;1.00
18690;DHT22;9782;52.930;15.562;2023-01-28T07:35:53;1.80;1.00
18690;DHT22;9782;52.930;15.562;2023-01-28T07:38:19;1.80;1.00
18690;DHT22;9782;52.930;15.562;2023-01-28T07:40:46;1.90;1.00
18690;DHT22;9782;52.930;15.562;2023-01-28T07:43:13;2.00;1.00
18690;DHT22;9782;52.930;15.562;2023-01-28T07:45:40;2.00;1.00
18690;DHT22;9782;52.930;15.562;2023-01-28T07:48:11;2.00;1.00
18690;DHT22;9782;52.930;15.562;2023-01-28T07:50:39;2.00;1.00
18690;DHT22;9782;52.930;15.562;2023-01-28T07:53:07;2.00;1.00
18690;DHT22;9782;52.930;15.562;2023-01-28T07:55:35;2.00;1.00
18690;DHT22;9782;52.930;15.562;2023-01-28T07:58:05;2.10;1.00
18690;DHT22;9782;52.930;15.562;2023-01-28T08:00:34;2.10;1.00
18690;DHT22;9782;52.930;15.562;2023-01-28T08:03:04;2.10;1.00
18690;DHT22;9782;52.930;15.562;2023-01-28T08:05:37;2.20;1.00
18690;DHT22;9782;52.930;15.562;2023-01-28T08:08:06;2.20;1.00
18690;DHT22;9782;52.930;15.562;2023-01-28T08:10:34;2.30;1.00
18690;DHT22;9782;52.930;15.562;2023-01-28T08:13:01;2.40;1.00
18690;DHT22;9782;52.930;15.562;2023-01-28T08:15:28;2.50;1.00
18690;DHT22;9782;52.930;15.562;2023-01-28T08:17:56;2.50;1.00
18690;DHT22;9782;52.930;15.562;2023-01-28T08:20:26;2.60;1.00
18690;DHT22;9782;52.930;15.562;2023-01-28T08:23:04;2.70;1.00
18690;DHT22;9782;52.930;15.562;2023-01-28T08:25:31;2.70;1.00
18690;DHT22;9782;52.930;15.562;2023-01-28T08:27:59;2.80;1.00
18690;DHT22;9782;52.930;15.562;2023-01-28T08:30:26;2.80;1.00
18690;DHT22;9782;52.930;15.562;2023-01-28T08:32:54;2.90;1.00
18690;DHT22;9782;52.930;15.562;2023-01-28T08:35:21;3.00;99.90
18690;DHT22;9782;52.930;15.562;2023-01-28T08:37:50;3.00;99.90
18690;DHT22;9782;52.930;15.562;2023-01-28T08:40:19;3.10;99.90
18690;DHT22;9782;52.930;15.562;2023-01-28T08:42:46;3.10;99.90
18690;DHT22;9782;52.930;15.562;2023-01-28T08:45:14;3.20;99.90
18690;DHT22;9782;52.930;15.562;2023-01-28T08:47:47;3.30;99.90
18690;DHT22;9782;52.930;15.562;2023-01-28T08:50:15;3.30;99.90
18690;DHT22;9782;52.930;15.562;2023-01-28T08:52:42;3.40;99.90
18690;DHT22;9782;52.930;15.562;2023-01-28T08:55:09;3.40;99.90
18690;DHT22;9782;52.930;15.562;2023-01-28T08:57:37;3.50;99.90
18690;DHT22;9782;52.930;15.562;2023-01-28T09:00:07;3.50;99.90
18690;DHT22;9782;52.930;15.562;2023-01-28T09:02:35;3.50;99.90
18690;DHT22;9782;52.930;15.562;2023-01-28T09:05:02;3.50;99.90
18690;DHT22;9782;52.930;15.562;2023-01-28T09:07:30;3.60;99.90
18690;DHT22;9782;52.930;15.562;2023-01-28T09:09:57;3.70;99.90
18690;DHT22;9782;52.930;15.562;2023-01-28T09:12:24;3.80;99.90
18690;DHT22;9782;52.930;15.562;2023-01-28T09:14:59;3.90;99.90
18690;DHT22;9782;52.930;15.562;2023-01-28T09:17:43;3.90;99.90
18690;DHT22;9782;52.930;15.562;2023-01-28T09:20:11;4.00;67.20
18690;DHT22;9782;52.930;15.562;2023-01-28T09:22:38;4.00;1.00
18690;DHT22;9782;52.930;15.562;2023-01-28T09:25:05;3.90;1.00
18690;DHT22;9782;52.930;15.562;2023-01-28T09:27:33;3.90;1.00
18690;DHT22;9782;52.930;15.562;2023-01-28T09:30:02;3.90;1.00
18690;DHT22;9782;52.930;15.562;2023-01-28T09:32:29;4.00;1.00
18690;DHT22;9782;52.930;15.562;2023-01-28T09:34:56;4.00;1.00
18690;DHT22;9782;52.930;15.562;2023-01-28T09:37:23;4.00;1.00
18690;DHT22;9782;52.930;15.562;2023-01-28T09:39:50;4.00;1.00
18690;DHT22;9782;52.930;15.562;2023-01-28T09:42:30;4.00;1.00
18690;DHT22;9782;52.930;15.562;2023-01-28T09:45:07;3.90;1.00
18690;DHT22;9782;52.930;15.562;2023-01-28T09:47:40;3.90;1.00
18690;DHT22;9782;52.930;15.562;2023-01-28T09:50:13;3.80;1.00
18690;DHT22;9782;52.930;15.562;2023-01-28T09:52:41;3.70;1.00
18690;DHT22;9782;52.930;15.562;2023-01-28T09:55:16;3.70;1.00
18690;DHT22;9782;52.930;15.562;2023-01-28T09:57:48;3.60;1.00
18690;DHT22;9782;52.930;15.562;2023-01-28T10:00:20;3.70;1.00
18690;DHT22;9782;52.930;15.562;2023-01-28T10:03:00;3.80;1.00
18690;DHT22;9782;52.930;15.562;2023-01-28T10:05:35;3.70;1.00
18690;DHT22;9782;52.930;15.562;2023-01-28T10:08:15;3.80;1.00
18690;DHT22;9782;52.930;15.562;2023-01-28T10:10:47;3.90;1.00
18690;DHT22;9782;52.930;15.562;2023-01-28T10:13:23;3.90;1.00
18690;DHT22;9782;52.930;15.562;2023-01-28T10:16:04;3.90;1.00
18690;DHT22;9782;52.930;15.562;2023-01-28T10:18:40;3.90;1.00
18690;DHT22;9782;52.930;15.562;2023-01-28T10:21:13;3.90;1.00
18690;DHT22;9782;52.930;15.562;2023-01-28T10:23:50;3.90;1.00
18690;DHT22;9782;52.930;15.562;2023-01-28T10:26:23;4.00;1.00
18690;DHT22;9782;52.930;15.562;2023-01-28T10:28:55;4.00;1.00
18690;DHT22;9782;52.930;15.562;2023-01-28T10:31:30;4.10;1.00
18690;DHT22;9782;52.930;15.562;2023-01-28T10:33:58;4.10;1.00
18690;DHT22;9782;52.930;15.562;2023-01-28T10:36:25;4.20;1.00
18690;DHT22;9782;52.930;15.562;2023-01-28T10:38:52;4.20;1.00
18690;DHT22;9782;52.930;15.562;2023-01-28T10:41:21;4.20;1.00
18690;DHT22;9782;52.930;15.562;2023-01-28T10:43:50;4.20;1.00
18690;DHT22;9782;52.930;15.562;2023-01-28T10:46:20;4.20;1.00
18690;DHT22;9782;52.930;15.562;2023-01-28T10:48:54;4.20;1.00
18690;DHT22;9782;52.930;15.562;2023-01-28T10:51:30;4.20;1.00
18690;DHT22;9782;52.930;15.562;2023-01-28T10:53:57;4.20;1.00
18690;DHT22;9782;52.930;15.562;2023-01-28T10:56:26;4.20;1.00
18690;DHT22;9782;52.930;15.562;2023-01-28T10:58:57;4.20;1.00
18690;DHT22;9782;52.930;15.562;2023-01-28T11:01:37;4.20;1.00
18690;DHT22;9782;52.930;15.562;2023-01-28T11:04:16;4.30;1.00
18690;DHT22;9782;52.930;15.562;2023-01-28T11:06:51;4.30;1.00
18690;DHT22;9782;52.930;15.562;2023-01-28T11:09:23;4.40;1.00
18690;DHT22;9782;52.930;15.562;2023-01-28T11:11:50;4.40;1.00
18690;DHT22;9782;52.930;15.562;2023-01-28T11:14:22;4.50;1.00
18690;DHT22;9782;52.930;15.562;2023-01-28T11:16:51;4.50;1.00
18690;DHT22;9782;52.930;15.562;2023-01-28T11:19:30;4.50;1.00
18690;DHT22;9782;52.930;15.562;2023-01-28T11:21:59;4.60;1.00
18690;DHT22;9782;52.930;15.562;2023-01-28T11:24:29;4.60;1.00
18690;DHT22;9782;52.930;15.562;2023-01-28T11:27:10;4.70;1.00
18690;DHT22;9782;52.930;15.562;2023-01-28T11:29:39;4.70;1.00
18690;DHT22;9782;52.930;15.562;2023-01-28T11:32:16;4.80;1.00
18690;DHT22;9782;52.930;15.562;2023-01-28T11:34:51;4.80;1.00
18690;DHT22;9782;52.930;15.562;2023-01-28T11:37:20;4.80;1.00
18690;DHT22;9782;52.930;15.562;2023-01-28T11:39:47;4.80;1.00
18690;DHT22;9782;52.930;15.562;2023-01-28T11:42:16;4.80;1.00
18690;DHT22;9782;52.930;15.562;2023-01-28T11:44:44;4.90;1.00
18690;DHT22;9782;52.930;15.562;2023-01-28T11:47:24;4.90;1.00
18690;DHT22;9782;52.930;15.562;2023-01-28T11:50:03;4.90;1.00
18690;DHT22;9782;52.930;15.562;2023-01-28T11:52:39;4.90;1.00
18690;DHT22;9782;52.930;15.562;2023-01-28T11:55:20;4.90;1.00
18690;DHT22;9782;52.930;15.562;2023-01-28T11:57:57;4.90;1.00
18690;DHT22;9782;52.930;15.562;2023-01-28T12:00:37;4.80;1.00
18690;DHT22;9782;52.930;15.562;2023-01-28T12:03:24;4.80;1.00
18690;DHT22;9782;52.930;15.562;2023-01-28T12:06:09;4.80;1.00
18690;DHT22;9782;52.930;15.562;2023-01-28T12:08:42;4.80;1.00
18690;DHT22;9782;52.930;15.562;2023-01-28T12:11:25;4.70;1.00
18690;DHT22;9782;52.930;15.562;2023-01-28T12:14:15;4.70;1.00
18690;DHT22;9782;52.930;15.562;2023-01-28T12:17:04;4.70;1.00
18690;DHT22;9782;52.930;15.562;2023-01-28T12:19:48;4.60;1.00
18690;DHT22;9782;52.930;15.562;2023-01-28T12:22:42;4.60;1.00
18690;DHT22;9782;52.930;15.562;2023-01-28T12:25:20;4.60;1.00
18690;DHT22;9782;52.930;15.562;2023-01-28T12:27:58;4.60;1.00
18690;DHT22;9782;52.930;15.562;2023-01-28T12:30:36;4.60;1.00
18690;DHT22;9782;52.930;15.562;2023-01-28T12:33:27;4.60;1.00
18690;DHT22;9782;52.930;15.562;2023-01-28T12:36:02;4.60;1.00
18690;DHT22;9782;52.930;15.562;2023-01-28T12:38:43;4.60;1.00
18690;DHT22;9782;52.930;15.562;2023-01-28T12:41:15;4.60;1.00
18690;DHT22;9782;52.930;15.562;2023-01-28T12:43:52;4.60;1.00
18690;DHT22;9782;52.930;15.562;2023-01-28T12:46:38;4.60;1.00
18690;DHT22;9782;52.930;15.562;2023-01-28T12:49:11;4.60;1.00
18690;DHT22;9782;52.930;15.562;2023-01-28T12:51:48;4.50;1.00
18690;DHT22;9782;52.930;15.562;2023-01-28T12:54:21;4.50;1.00
18690;DHT22;9782;52.930;15.562;2023-01-28T12:56:52;4.50;1.00
18690;DHT22;9782;52.930;15.562;2023-01-28T12:59:24;4.50;1.00
18690;DHT22;9782;52.930;15.562;2023-01-28T13:02:02;4.50;1.00
18690;DHT22;9782;52.930;15.562;2023-01-28T13:04:36;4.40;1.00
18690;DHT22;9782;52.930;15.562;2023-01-28T13:07:08;4.40;1.00
18690;DHT22;9782;52.930;15.562;2023-01-28T13:09:43;4.30;1.00
18690;DHT22;9782;52.930;15.562;2023-01-28T13:12:14;4.30;1.00
18690;DHT22;9782;52.930;15.562;2023-01-28T13:14:42;4.20;1.00
18690;DHT22;9782;52.930;15.562;2023-01-28T13:17:11;4.20;1.00
18690;DHT22;9782;52.930;15.562;2023-01-28T13:19:40;4.10;1.00
18690;DHT22;9782;52.930;15.562;2023-01-28T13:22:12;4.00;1.00
18690;DHT22;9782;52.930;15.562;2023-01-28T13:24:41;3.80;1.00
18690;DHT22;9782;52.930;15.562;2023-01-28T13:27:20;3.80;1.00
18690;DHT22;9782;52.930;15.562;2023-01-28T13:29:48;3.70;1.00
18690;DHT22;9782;52.930;15.562;2023-01-28T13:32:31;3.70;1.00
18690;DHT22;9782;52.930;15.562;2023-01-28T13:35:01;3.70;1.00
18690;DHT22;9782;52.930;15.562;2023-01-28T13:37:33;3.70;1.00
18690;DHT22;9782;52.930;15.562;2023-01-28T13:40:23;3.70;1.00
18690;DHT22;9782;52.930;15.562;2023-01-28T13:43:00;3.60;1.00
18690;DHT22;9782;52.930;15.562;2023-01-28T13:45:28;3.60;1.00
18690;DHT22;9782;52.930;15.562;2023-01-28T13:48:00;3.60;1.00
18690;DHT22;9782;52.930;15.562;2023-01-28T13:50:37;3.60;1.00
18690;DHT22;9782;52.930;15.562;2023-01-28T13:53:18;3.60;1.00
18690;DHT22;9782;52.930;15.562;2023-01-28T13:55:48;3.70;1.00
18690;DHT22;9782;52.930;15.562;2023-01-28T14:01:34;3.60;1.00
18690;DHT22;9782;52.930;15.562;2023-01-28T14:04:40;3.60;1.00
18690;DHT22;9782;52.930;15.562;2023-01-28T14:07:16;3.50;1.00
18690;DHT22;9782;52.930;15.562;2023-01-28T14:10:07;3.50;1.00
18690;DHT22;9782;52.930;15.562;2023-01-28T14:15:49;3.50;1.00
18690;DHT22;9782;52.930;15.562;2023-01-28T14:18:25;3.40;1.00
18690;DHT22;9782;52.930;15.562;2023-01-28T14:20:54;3.40;1.00
18690;DHT22;9782;52.930;15.562;2023-01-28T14:23:23;3.50;1.00
18690;DHT22;9782;52.930;15.562;2023-01-28T14:26:03;3.50;1.00
18690;DHT22;9782;52.930;15.562;2023-01-28T14:28:39;3.40;1.00
18690;DHT22;9782;52.930;15.562;2023-01-28T14:31:13;3.40;1.00
18690;DHT22;9782;52.930;15.562;2023-01-28T14:33:42;3.40;1.00
18690;DHT22;9782;52.930;15.562;2023-01-28T14:36:10;3.40;1.00
18690;DHT22;9782;52.930;15.562;2023-01-28T14:38:39;3.50;1.00
18690;DHT22;9782;52.930;15.562;2023-01-28T14:41:08;3.40;1.00
18690;DHT22;9782;52.930;15.562;2023-01-28T14:43:37;3.40;1.00
18690;DHT22;9782;52.930;15.562;2023-01-28T14:46:15;3.50;1.00
18690;DHT22;9782;52.930;15.562;2023-01-28T14:48:53;3.40;1.00
18690;DHT22;9782;52.930;15.562;2023-01-28T14:54:44;3.40;1.00
18690;DHT22;9782;52.930;15.562;2023-01-28T14:57:32;3.40;1.00
18690;DHT22;9782;52.930;15.562;2023-01-28T15:00:13;3.40;1.00
18690;DHT22;9782;52.930;15.562;2023-01-28T15:02:43;3.40;1.00
18690;DHT22;9782;52.930;15.562;2023-01-28T15:05:14;3.40;1.00
18690;DHT22;9782;52.930;15.562;2023-01-28T15:07:43;3.40;1.00
18690;DHT22;9782;52.930;15.562;2023-01-28T15:10:16;3.30;1.00
18690;DHT22;9782;52.930;15.562;2023-01-28T15:12:46;3.30;1.00
18690;DHT22;9782;52.930;15.562;2023-01-28T15:15:18;3.20;1.00
18690;DHT22;9782;52.930;15.562;2023-01-28T15:17:48;3.20;1.00
18690;DHT22;9782;52.930;15.562;2023-01-28T15:20:18;3.10;1.00
18690;DHT22;9782;52.930;15.562;2023-01-28T15:22:45;3.10;1.00
18690;DHT22;9782;52.930;15.562;2023-01-28T15:25:15;3.00;1.00
18690;DHT22;9782;52.930;15.562;2023-01-28T15:27:43;2.90;1.00
18690;DHT22;9782;52.930;15.562;2023-01-28T15:30:19;2.80;1.00
18690;DHT22;9782;52.930;15.562;2023-01-28T15:32:56;2.70;1.00
18690;DHT22;9782;52.930;15.562;2023-01-28T15:35:24;2.70;1.00
18690;DHT22;9782;52.930;15.562;2023-01-28T15:37:51;2.70;1.00
18690;DHT22;9782;52.930;15.562;2023-01-28T15:40:19;2.60;1.00
18690;DHT22;9782;52.930;15.562;2023-01-28T15:42:48;2.60;1.00
18690;DHT22;9782;52.930;15.562;2023-01-28T15:45:16;2.50;1.00
18690;DHT22;9782;52.930;15.562;2023-01-28T15:47:44;2.50;1.00
18690;DHT22;9782;52.930;15.562;2023-01-28T15:50:18;2.40;1.00
18690;DHT22;9782;52.930;15.562;2023-01-28T15:52:46;2.40;1.00
18690;DHT22;9782;52.930;15.562;2023-01-28T15:55:35;2.40;1.00
18690;DHT22;9782;52.930;15.562;2023-01-28T15:58:16;2.30;1.00
18690;DHT22;9782;52.930;15.562;2023-01-28T16:00:44;2.30;1.00
18690;DHT22;9782;52.930;15.562;2023-01-28T16:03:18;2.30;1.00
18690;DHT22;9782;52.930;15.562;2023-01-28T16:05:57;2.30;1.00
18690;DHT22;9782;52.930;15.562;2023-01-28T16:08:34;2.30;1.00
18690;DHT22;9782;52.930;15.562;2023-01-28T16:11:04;2.30;1.00
18690;DHT22;9782;52.930;15.562;2023-01-28T16:13:32;2.30;1.00
18690;DHT22;9782;52.930;15.562;2023-01-28T16:16:01;2.30;1.00
18690;DHT22;9782;52.930;15.562;2023-01-28T16:18:37;2.30;1.00
18690;DHT22;9782;52.930;15.562;2023-01-28T16:21:08;2.20;1.00
18690;DHT22;9782;52.930;15.562;2023-01-28T16:23:36;2.30;1.00
18690;DHT22;9782;52.930;15.562;2023-01-28T16:26:05;2.20;1.00
18690;DHT22;9782;52.930;15.562;2023-01-28T16:28:32;2.20;1.00
18690;DHT22;9782;52.930;15.562;2023-01-28T16:30:59;2.20;1.00
18690;DHT22;9782;52.930;15.562;2023-01-28T16:33:26;2.20;1.00
18690;DHT22;9782;52.930;15.562;2023-01-28T16:35:54;2.20;1.00
18690;DHT22;9782;52.930;15.562;2023-01-28T16:38:22;2.20;1.00
18690;DHT22;9782;52.930;15.562;2023-01-28T16:40:49;2.30;1.00
18690;DHT22;9782;52.930;15.562;2023-01-28T16:43:16;2.20;1.00
18690;DHT22;9782;52.930;15.562;2023-01-28T16:45:44;2.20;1.00
18690;DHT22;9782;52.930;15.562;2023-01-28T16:48:11;2.10;1.00
18690;DHT22;9782;52.930;15.562;2023-01-28T16:50:39;2.10;1.00
18690;DHT22;9782;52.930;15.562;2023-01-28T16:53:17;2.20;1.00
18690;DHT22;9782;52.930;15.562;2023-01-28T16:55:48;2.10;1.00
18690;DHT22;9782;52.930;15.562;2023-01-28T16:58:16;2.20;1.00
18690;DHT22;9782;52.930;15.562;2023-01-28T17:00:44;2.20;1.00
18690;DHT22;9782;52.930;15.562;2023-01-28T17:03:11;2.20;1.00
18690;DHT22;9782;52.930;15.562;2023-01-28T17:05:38;2.20;7.80
18690;DHT22;9782;52.930;15.562;2023-01-28T17:08:05;2.20;17.40
18690;DHT22;9782;52.930;15.562;2023-01-28T17:10:33;2.20;26.60
18690;DHT22;9782;52.930;15.562;2023-01-28T17:13:01;2.20;31.20
18690;DHT22;9782;52.930;15.562;2023-01-28T17:15:28;2.20;44.90
18690;DHT22;9782;52.930;15.562;2023-01-28T17:17:55;2.10;44.90
18690;DHT22;9782;52.930;15.562;2023-01-28T17:20:22;2.10;61.50
18690;DHT22;9782;52.930;15.562;2023-01-28T17:22:49;2.10;63.00
18690;DHT22;9782;52.930;15.562;2023-01-28T17:25:16;2.10;54.20
18690;DHT22;9782;52.930;15.562;2023-01-28T17:27:43;2.10;45.40
18690;DHT22;9782;52.930;15.562;2023-01-28T17:30:13;2.10;34.70
18690;DHT22;9782;52.930;15.562;2023-01-28T17:32:40;2.10;6.70
18690;DHT22;9782;52.930;15.562;2023-01-28T17:35:07;2.00;1.00
18690;DHT22;9782;52.930;15.562;2023-01-28T17:37:36;1.90;1.00
18690;DHT22;9782;52.930;15.562;2023-01-28T17:40:04;2.00;1.00
18690;DHT22;9782;52.930;15.562;2023-01-28T17:42:32;1.90;1.00
18690;DHT22;9782;52.930;15.562;2023-01-28T17:44:59;1.80;1.00
18690;DHT22;9782;52.930;15.562;2023-01-28T17:47:29;1.80;1.00
18690;DHT22;9782;52.930;15.562;2023-01-28T17:49:56;1.80;1.00
18690;DHT22;9782;52.930;15.562;2023-01-28T17:52:24;1.80;1.00
18690;DHT22;9782;52.930;15.562;2023-01-28T17:54:50;1.80;1.00
18690;DHT22;9782;52.930;15.562;2023-01-28T17:57:17;1.80;1.00
18690;DHT22;9782;52.930;15.562;2023-01-28T17:59:44;1.70;1.00
18690;DHT22;9782;52.930;15.562;2023-01-28T18:02:12;1.70;1.00
18690;DHT22;9782;52.930;15.562;2023-01-28T18:04:41;1.70;1.00
18690;DHT22;9782;52.930;15.562;2023-01-28T18:07:09;1.60;1.00
18690;DHT22;9782;52.930;15.562;2023-01-28T18:09:37;1.70;1.00
18690;DHT22;9782;52.930;15.562;2023-01-28T18:12:04;1.70;1.00
18690;DHT22;9782;52.930;15.562;2023-01-28T18:14:31;1.70;1.00
18690;DHT22;9782;52.930;15.562;2023-01-28T18:16:58;1.70;1.00
18690;DHT22;9782;52.930;15.562;2023-01-28T18:19:25;1.80;1.00
18690;DHT22;9782;52.930;15.562;2023-01-28T18:21:54;1.80;1.00
18690;DHT22;9782;52.930;15.562;2023-01-28T18:24:22;1.80;1.00
18690;DHT22;9782;52.930;15.562;2023-01-28T18:26:49;1.80;1.00
18690;DHT22;9782;52.930;15.562;2023-01-28T18:29:16;1.80;1.00
18690;DHT22;9782;52.930;15.562;2023-01-28T18:31:45;1.80;1.00
18690;DHT22;9782;52.930;15.562;2023-01-28T18:34:13;1.80;1.00
18690;DHT22;9782;52.930;15.562;2023-01-28T18:36:40;1.80;1.00
18690;DHT22;9782;52.930;15.562;2023-01-28T18:39:10;1.80;1.00
18690;DHT22;9782;52.930;15.562;2023-01-28T18:41:38;1.80;1.00
18690;DHT22;9782;52.930;15.562;2023-01-28T18:44:06;1.80;1.00
18690;DHT22;9782;52.930;15.562;2023-01-28T18:46:33;1.70;1.00
18690;DHT22;9782;52.930;15.562;2023-01-28T18:49:00;1.70;1.00
18690;DHT22;9782;52.930;15.562;2023-01-28T18:51:27;1.70;1.00
18690;DHT22;9782;52.930;15.562;2023-01-28T18:53:56;1.70;1.00
18690;DHT22;9782;52.930;15.562;2023-01-28T18:56:25;1.60;1.00
18690;DHT22;9782;52.930;15.562;2023-01-28T18:58:54;1.60;1.00
18690;DHT22;9782;52.930;15.562;2023-01-28T19:01:21;1.60;1.00
18690;DHT22;9782;52.930;15.562;2023-01-28T19:03:48;1.60;1.00
18690;DHT22;9782;52.930;15.562;2023-01-28T19:06:15;1.60;1.00
18690;DHT22;9782;52.930;15.562;2023-01-28T19:08:42;1.60;1.00
18690;DHT22;9782;52.930;15.562;2023-01-28T19:11:09;1.60;1.00
18690;DHT22;9782;52.930;15.562;2023-01-28T19:13:38;1.50;1.00
18690;DHT22;9782;52.930;15.562;2023-01-28T19:16:05;1.50;1.00
18690;DHT22;9782;52.930;15.562;2023-01-28T19:18:32;1.50;1.00
18690;DHT22;9782;52.930;15.562;2023-01-28T19:21:03;1.40;1.00
18690;DHT22;9782;52.930;15.562;2023-01-28T19:23:31;1.40;1.00
18690;DHT22;9782;52.930;15.562;2023-01-28T19:26:01;1.30;1.00
18690;DHT22;9782;52.930;15.562;2023-01-28T19:28:30;1.20;1.00
18690;DHT22;9782;52.930;15.562;2023-01-28T19:30:59;1.20;1.00
18690;DHT22;9782;52.930;15.562;2023-01-28T19:33:27;1.10;1.00
18690;DHT22;9782;52.930;15.562;2023-01-28T19:35:55;1.10;1.00
18690;DHT22;9782;52.930;15.562;2023-01-28T19:38:22;1.10;1.00
18690;DHT22;9782;52.930;15.562;2023-01-28T19:40:49;1.10;1.00
18690;DHT22;9782;52.930;15.562;2023-01-28T19:43:16;1.10;1.00
18690;DHT22;9782;52.930;15.562;2023-01-28T19:45:54;1.10;1.00
18690;DHT22;9782;52.930;15.562;2023-01-28T19:48:22;1.10;1.00
18690;DHT22;9782;52.930;15.562;2023-01-28T19:50:50;1.10;1.00
18690;DHT22;9782;52.930;15.562;2023-01-28T19:53:17;1.10;1.00
18690;DHT22;9782;52.930;15.562;2023-01-28T19:55:45;1.00;1.00
18690;DHT22;9782;52.930;15.562;2023-01-28T19:58:13;1.10;1.00
18690;DHT22;9782;52.930;15.562;2023-01-28T20:00:40;1.10;1.00
18690;DHT22;9782;52.930;15.562;2023-01-28T20:03:07;1.00;1.00
18690;DHT22;9782;52.930;15.562;2023-01-28T20:05:37;1.00;1.00
18690;DHT22;9782;52.930;15.562;2023-01-28T20:08:04;0.90;1.00
18690;DHT22;9782;52.930;15.562;2023-01-28T20:10:31;0.90;1.00
18690;DHT22;9782;52.930;15.562;2023-01-28T20:12:58;0.90;1.00
18690;DHT22;9782;52.930;15.562;2023-01-28T20:15:26;0.90;1.00
18690;DHT22;9782;52.930;15.562;2023-01-28T20:17:56;0.90;1.00
18690;DHT22;9782;52.930;15.562;2023-01-28T20:20:23;0.90;1.00
18690;DHT22;9782;52.930;15.562;2023-01-28T20:22:52;0.90;1.00
18690;DHT22;9782;52.930;15.562;2023-01-28T20:25:19;1.00;1.00
18690;DHT22;9782;52.930;15.562;2023-01-28T20:27:46;1.00;1.00
18690;DHT22;9782;52.930;15.562;2023-01-28T20:30:14;1.00;1.00
18690;DHT22;9782;52.930;15.562;2023-01-28T20:32:41;1.00;1.00
18690;DHT22;9782;52.930;15.562;2023-01-28T20:35:09;1.00;1.00
18690;DHT22;9782;52.930;15.562;2023-01-28T20:37:36;1.10;1.00
18690;DHT22;9782;52.930;15.562;2023-01-28T20:40:08;1.10;1.00
18690;DHT22;9782;52.930;15.562;2023-01-28T20:42:35;1.10;1.00
18690;DHT22;9782;52.930;15.562;2023-01-28T20:45:03;1.10;1.00
18690;DHT22;9782;52.930;15.562;2023-01-28T20:47:30;1.10;1.00
18690;DHT22;9782;52.930;15.562;2023-01-28T20:49:57;1.00;1.00
18690;DHT22;9782;52.930;15.562;2023-01-28T20:52:24;0.90;1.00
18690;DHT22;9782;52.930;15.562;2023-01-28T20:54:51;0.80;1.00
18690;DHT22;9782;52.930;15.562;2023-01-28T20:57:22;0.60;1.00
18690;DHT22;9782;52.930;15.562;2023-01-28T20:59:49;0.50;1.00
18690;DHT22;9782;52.930;15.562;2023-01-28T21:02:16;0.40;1.00
18690;DHT22;9782;52.930;15.562;2023-01-28T21:04:43;0.30;1.00
18690;DHT22;9782;52.930;15.562;2023-01-28T21:07:10;0.20;1.00
18690;DHT22;9782;52.930;15.562;2023-01-28T21:09:38;0.10;1.00
18690;DHT22;9782;52.930;15.562;2023-01-28T21:12:06;0.00;1.00
18690;DHT22;9782;52.930;15.562;2023-01-28T21:14:34;-0.10;1.00
18690;DHT22;9782;52.930;15.562;2023-01-28T21:17:01;-0.10;1.00
18690;DHT22;9782;52.930;15.562;2023-01-28T21:19:28;-0.20;1.00
18690;DHT22;9782;52.930;15.562;2023-01-28T21:21:55;-0.20;1.00
18690;DHT22;9782;52.930;15.562;2023-01-28T21:24:22;-0.20;1.00
18690;DHT22;9782;52.930;15.562;2023-01-28T21:26:49;-0.30;11.30
18690;DHT22;9782;52.930;15.562;2023-01-28T21:29:16;-0.30;15.70
18690;DHT22;9782;52.930;15.562;2023-01-28T21:31:45;-0.30;23.70
18690;DHT22;9782;52.930;15.562;2023-01-28T21:34:12;-0.40;32.40
18690;DHT22;9782;52.930;15.562;2023-01-28T21:36:40;-0.40;32.50
18690;DHT22;9782;52.930;15.562;2023-01-28T21:39:07;-0.40;43.10
18690;DHT22;9782;52.930;15.562;2023-01-28T21:41:35;-0.40;56.20
18690;DHT22;9782;52.930;15.562;2023-01-28T21:44:02;-0.50;96.40
18690;DHT22;9782;52.930;15.562;2023-01-28T21:46:30;-0.50;99.90
18690;DHT22;9782;52.930;15.562;2023-01-28T21:49:00;-0.50;99.90
18690;DHT22;9782;52.930;15.562;2023-01-28T21:51:27;-0.60;99.90
18690;DHT22;9782;52.930;15.562;2023-01-28T21:54:01;-0.60;99.90
18690;DHT22;9782;52.930;15.562;2023-01-28T21:56:28;-0.60;99.90
18690;DHT22;9782;52.930;15.562;2023-01-28T21:58:55;-0.70;99.90
18690;DHT22;9782;52.930;15.562;2023-01-28T22:01:41;-0.70;99.90
18690;DHT22;9782;52.930;15.562;2023-01-28T22:04:10;-0.70;99.90
18690;DHT22;9782;52.930;15.562;2023-01-28T22:06:37;-0.70;99.90
18690;DHT22;9782;52.930;15.562;2023-01-28T22:09:06;-0.70;99.90
18690;DHT22;9782;52.930;15.562;2023-01-28T22:11:36;-0.70;99.90
18690;DHT22;9782;52.930;15.562;2023-01-28T22:14:04;-0.60;99.90
18690;DHT22;9782;52.930;15.562;2023-01-28T22:16:31;-0.60;99.90
18690;DHT22;9782;52.930;15.562;2023-01-28T22:18:58;-0.50;99.90
18690;DHT22;9782;52.930;15.562;2023-01-28T22:21:26;-0.40;99.90
18690;DHT22;9782;52.930;15.562;2023-01-28T22:23:53;-0.30;99.90
18690;DHT22;9782;52.930;15.562;2023-01-28T22:26:20;-0.10;99.90
18690;DHT22;9782;52.930;15.562;2023-01-28T22:28:47;0.00;99.90
18690;DHT22;9782;52.930;15.562;2023-01-28T22:31:15;0.10;99.90
18690;DHT22;9782;52.930;15.562;2023-01-28T22:33:42;0.20;99.90
18690;DHT22;9782;52.930;15.562;2023-01-28T22:36:12;0.30;87.10
18690;DHT22;9782;52.930;15.562;2023-01-28T22:38:42;0.30;42.70
18690;DHT22;9782;52.930;15.562;2023-01-28T22:41:11;0.40;18.60
18690;DHT22;9782;52.930;15.562;2023-01-28T22:43:39;0.50;11.60